createdAt,value
2023-04-11T00:00:02.686Z,10.63
2023-04-11T00:01:02.566Z,10.63
2023-04-11T00:02:01.603Z,10.63
2023-04-11T00:03:02.168Z,10.63
2023-04-11T00:04:02.161Z,10.61
2023-04-11T00:05:01.926Z,10.61
2023-04-11T00:06:01.663Z,10.60
2023-04-11T00:07:02.262Z,10.57
2023-04-11T00:08:01.744Z,10.58
2023-04-11T00:09:02.126Z,10.61
2023-04-11T00:10:01.944Z,10.64
2023-04-11T00:11:01.961Z,10.65
2023-04-11T00:12:02.520Z,10.67
2023-04-11T00:13:02.038Z,10.68
2023-04-11T00:14:01.927Z,10.67
2023-04-11T00:15:01.911Z,10.69
2023-04-11T00:16:02.565Z,10.69
2023-04-11T00:17:02.687Z,10.67
2023-04-11T00:18:02.283Z,10.68
2023-04-11T00:19:02.189Z,10.67
2023-04-11T00:20:02.697Z,10.64
2023-04-11T00:21:02.383Z,10.63
2023-04-11T00:22:02.913Z,10.63
2023-04-11T00:23:02.505Z,10.63
2023-04-11T00:24:02.352Z,10.65
2023-04-11T00:25:02.862Z,10.66
2023-04-11T00:26:02.347Z,10.66
2023-04-11T00:27:02.352Z,10.65
2023-04-11T00:28:02.896Z,10.67
2023-04-11T00:29:02.449Z,10.68
2023-04-11T00:30:02.340Z,10.69
2023-04-11T00:31:02.671Z,10.70
2023-04-11T00:32:01.707Z,10.70
2023-04-11T00:33:02.307Z,10.70
2023-04-11T00:34:02.011Z,10.73
2023-04-11T00:35:01.806Z,10.75
2023-04-11T00:36:01.620Z,10.73
2023-04-11T00:37:02.708Z,10.72
2023-04-11T00:38:02.489Z,10.71
2023-04-11T00:39:02.807Z,10.70
2023-04-11T00:40:02.475Z,10.69
2023-04-11T00:41:02.368Z,10.70
2023-04-11T00:42:02.240Z,10.72
2023-04-11T00:43:02.254Z,10.74
2023-04-11T00:44:02.802Z,10.76
2023-04-11T00:45:02.783Z,10.76
2023-04-11T00:46:02.605Z,10.75
2023-04-11T00:47:01.498Z,10.72
2023-04-11T00:48:02.118Z,10.73
2023-04-11T00:49:01.540Z,10.72
2023-04-11T00:50:01.406Z,10.71
2023-04-11T00:51:02.008Z,10.69
2023-04-11T00:52:01.623Z,10.67
2023-04-11T00:53:02.169Z,10.69
2023-04-11T00:54:02.210Z,10.69
2023-04-11T00:55:02.044Z,10.69
2023-04-11T00:56:01.570Z,10.74
2023-04-11T00:57:02.413Z,10.79
2023-04-11T00:58:02.389Z,10.82
2023-04-11T00:59:02.259Z,10.78
2023-04-11T01:00:02.134Z,10.76
2023-04-11T01:01:02.322Z,10.74
2023-04-11T01:02:02.943Z,10.73
2023-04-11T01:03:03.133Z,10.75
2023-04-11T01:04:03.318Z,10.76
2023-04-11T01:05:02.891Z,10.75
2023-04-11T01:06:02.875Z,10.75
2023-04-11T01:07:02.535Z,10.78
2023-04-11T01:08:02.734Z,10.79
2023-04-11T01:09:02.499Z,10.81
2023-04-11T01:10:02.386Z,10.81
2023-04-11T01:11:02.902Z,10.78
2023-04-11T01:12:02.603Z,10.74
2023-04-11T01:13:03.040Z,10.73
2023-04-11T01:14:02.889Z,10.75
2023-04-11T01:15:02.668Z,10.78
2023-04-11T01:16:02.725Z,10.81
2023-04-11T01:17:02.872Z,10.80
2023-04-11T01:18:02.564Z,10.76
2023-04-11T01:19:02.680Z,10.76
2023-04-11T01:20:02.621Z,10.74
2023-04-11T01:21:02.435Z,10.72
2023-04-11T01:22:03.294Z,10.71
2023-04-11T01:23:03.007Z,10.70
2023-04-11T01:24:03.050Z,10.69
2023-04-11T01:25:03.126Z,10.66
2023-04-11T01:26:03.400Z,10.65
2023-04-11T01:27:03.005Z,10.67
2023-04-11T01:28:03.263Z,10.69
2023-04-11T01:29:03.181Z,10.71
2023-04-11T01:30:03.298Z,10.69
2023-04-11T01:31:02.851Z,10.69
2023-04-11T01:32:02.561Z,10.67
2023-04-11T01:33:02.394Z,10.67
2023-04-11T01:34:02.733Z,10.68
2023-04-11T01:35:02.387Z,10.63
2023-04-11T01:36:02.254Z,10.60
2023-04-11T01:37:02.555Z,10.60
2023-04-11T01:38:02.753Z,10.62
2023-04-11T01:39:02.637Z,10.63
2023-04-11T01:40:03.056Z,10.61
2023-04-11T01:41:02.488Z,10.61
2023-04-11T01:42:03.048Z,10.63
2023-04-11T01:43:02.893Z,10.65
2023-04-11T01:44:02.815Z,10.64
2023-04-11T01:45:03.264Z,10.62
2023-04-11T01:46:02.931Z,10.62
2023-04-11T01:47:02.518Z,10.64
2023-04-11T01:48:02.936Z,10.64
2023-04-11T01:49:02.426Z,10.67
2023-04-11T01:50:02.567Z,10.65
2023-04-11T01:51:02.498Z,10.62
2023-04-11T01:52:03.191Z,10.61
2023-04-11T01:53:03.060Z,10.61
2023-04-11T01:54:03.361Z,10.59
2023-04-11T01:55:03.081Z,10.56
2023-04-11T01:56:03.049Z,10.59
2023-04-11T01:57:02.679Z,10.58
2023-04-11T01:58:02.350Z,10.55
2023-04-11T01:59:02.586Z,10.54
2023-04-11T02:00:02.609Z,10.51
2023-04-11T02:01:02.431Z,10.50
2023-04-11T02:02:02.910Z,10.49
2023-04-11T02:03:02.790Z,10.51
2023-04-11T02:04:02.762Z,10.50
2023-04-11T02:05:02.746Z,10.48
2023-04-11T02:06:02.608Z,10.45
2023-04-11T02:07:03.380Z,10.45
2023-04-11T02:08:03.050Z,10.41
2023-04-11T02:09:03.184Z,10.37
2023-04-11T02:10:03.410Z,10.37
2023-04-11T02:11:02.812Z,10.39
2023-04-11T02:12:03.476Z,10.41
2023-04-11T02:13:03.549Z,10.43
2023-04-11T02:14:03.535Z,10.46
2023-04-11T02:15:03.269Z,10.45
2023-04-11T02:16:03.305Z,10.46
2023-04-11T02:17:03.855Z,10.46
2023-04-11T02:18:03.590Z,10.47
2023-04-11T02:19:03.655Z,10.45
2023-04-11T02:20:03.879Z,10.45
2023-04-11T02:21:03.849Z,10.44
2023-04-11T02:22:03.962Z,10.44
2023-04-11T02:23:03.657Z,10.42
2023-04-11T02:24:03.939Z,10.39
2023-04-11T02:25:03.529Z,10.39
2023-04-11T02:26:03.301Z,10.37
2023-04-11T02:27:02.425Z,10.35
2023-04-11T02:28:02.442Z,10.33
2023-04-11T02:29:02.470Z,10.30
2023-04-11T02:30:02.776Z,10.29
2023-04-11T02:31:03.006Z,10.30
2023-04-11T02:32:03.524Z,10.31
2023-04-11T02:33:03.133Z,10.31
2023-04-11T02:34:03.346Z,10.32
2023-04-11T02:35:03.216Z,10.33
2023-04-11T02:36:03.097Z,10.33
2023-04-11T02:37:03.740Z,10.36
2023-04-11T02:38:03.888Z,10.33
2023-04-11T02:39:03.756Z,10.35
2023-04-11T02:40:03.731Z,10.36
2023-04-11T02:41:03.318Z,10.35
2023-04-11T02:42:03.164Z,10.36
2023-04-11T02:43:03.545Z,10.37
2023-04-11T02:44:03.168Z,10.38
2023-04-11T02:45:02.951Z,10.40
2023-04-11T02:46:12.508Z,10.40
2023-04-11T02:47:02.756Z,10.39
2023-04-11T02:48:02.826Z,10.42
2023-04-11T02:49:02.955Z,10.43
2023-04-11T02:50:02.398Z,10.43
2023-04-11T02:51:02.645Z,10.44
2023-04-11T02:52:03.113Z,10.46
2023-04-11T02:53:03.359Z,10.49
2023-04-11T02:54:03.220Z,10.52
2023-04-11T02:55:03.339Z,10.51
2023-04-11T02:56:03.157Z,10.53
2023-04-11T02:57:02.495Z,10.56
2023-04-11T02:58:02.361Z,10.57
2023-04-11T02:59:02.436Z,10.58
2023-04-11T03:00:02.993Z,10.59
2023-04-11T03:01:02.562Z,10.62
2023-04-11T03:02:03.187Z,10.59
2023-04-11T03:03:02.965Z,10.55
2023-04-11T03:04:02.765Z,10.54
2023-04-11T03:05:03.252Z,10.52
2023-04-11T03:06:03.013Z,10.52
2023-04-11T03:07:02.034Z,10.49
2023-04-11T03:08:02.289Z,10.46
2023-04-11T03:09:02.127Z,10.42
2023-04-11T03:10:02.163Z,10.38
2023-04-11T03:11:02.483Z,10.40
2023-04-11T03:12:02.600Z,10.40
2023-04-11T03:13:02.694Z,10.39
2023-04-11T03:14:02.985Z,10.35
2023-04-11T03:15:02.697Z,10.37
2023-04-11T03:16:02.921Z,10.36
2023-04-11T03:17:02.823Z,10.35
2023-04-11T03:18:03.037Z,10.37
2023-04-11T03:19:03.052Z,10.36
2023-04-11T03:20:03.139Z,10.38
2023-04-11T03:21:02.941Z,10.42
2023-04-11T03:22:02.463Z,10.45
2023-04-11T03:23:02.677Z,10.46
2023-04-11T03:24:02.139Z,10.46
2023-04-11T03:25:02.083Z,10.45
2023-04-11T03:26:02.612Z,10.44
2023-04-11T03:27:02.730Z,10.46
2023-04-11T03:28:02.613Z,10.46
2023-04-11T03:29:02.465Z,10.41
2023-04-11T03:30:02.672Z,10.41
2023-04-11T03:31:02.584Z,10.40
2023-04-11T03:32:02.696Z,10.38
2023-04-11T03:33:03.101Z,10.33
2023-04-11T03:34:03.258Z,10.32
2023-04-11T03:35:02.789Z,10.28
2023-04-11T03:36:02.872Z,10.28
2023-04-11T03:37:02.143Z,10.28
2023-04-11T03:38:02.379Z,10.28
2023-04-11T03:39:02.059Z,10.27
2023-04-11T03:40:02.320Z,10.26
2023-04-11T03:41:02.251Z,10.21
2023-04-11T03:42:02.708Z,10.20
2023-04-11T03:43:04.686Z,10.19
2023-04-11T03:44:02.464Z,10.20
2023-04-11T03:45:02.488Z,10.19
2023-04-11T03:46:02.344Z,10.17
2023-04-11T03:47:02.308Z,10.14
2023-04-11T03:48:02.810Z,10.08
2023-04-11T03:49:02.120Z,10.03
2023-04-11T03:50:02.360Z,10.00
2023-04-11T03:51:02.156Z,10.02
2023-04-11T03:52:02.407Z,10.05
2023-04-11T03:53:02.359Z,10.05
2023-04-11T03:54:02.803Z,10.05
2023-04-11T03:55:02.742Z,10.02
2023-04-11T03:56:02.614Z,10.00
2023-04-11T03:57:02.289Z,10.02
2023-04-11T03:58:02.013Z,10.04
2023-04-11T03:59:01.904Z,10.04
2023-04-11T04:00:01.971Z,10.06
2023-04-11T04:01:01.907Z,10.06
2023-04-11T04:02:02.396Z,10.09
2023-04-11T04:03:02.540Z,10.09
2023-04-11T04:04:03.370Z,10.07
2023-04-11T04:05:02.564Z,10.06
2023-04-11T04:06:02.465Z,10.05
2023-04-11T04:07:02.988Z,10.04
2023-04-11T04:08:03.160Z,10.05
2023-04-11T04:09:02.690Z,10.03
2023-04-11T04:10:02.613Z,10.02
2023-04-11T04:11:02.812Z,10.01
2023-04-11T04:12:02.460Z,10.01
2023-04-11T04:13:02.404Z,9.99
2023-04-11T04:14:02.517Z,9.92
2023-04-11T04:15:02.674Z,9.92
2023-04-11T04:16:03.943Z,9.93
2023-04-11T04:17:02.848Z,9.93
2023-04-11T04:18:02.659Z,9.91
2023-04-11T04:19:02.534Z,9.88
2023-04-11T04:20:02.792Z,9.87
2023-04-11T04:21:03.017Z,9.87
2023-04-11T04:22:01.958Z,9.90
2023-04-11T04:23:02.311Z,9.90
2023-04-11T04:24:01.974Z,9.88
2023-04-11T04:25:02.125Z,9.87
2023-04-11T04:26:02.094Z,9.86
2023-04-11T04:27:02.734Z,9.82
2023-04-11T04:28:02.254Z,9.79
2023-04-11T04:29:02.333Z,9.79
2023-04-11T04:30:04.129Z,9.80
2023-04-11T04:31:02.732Z,9.80
2023-04-11T04:32:03.160Z,9.79
2023-04-11T04:33:02.622Z,9.79
2023-04-11T04:34:02.366Z,9.81
2023-04-11T04:35:02.998Z,9.82
2023-04-11T04:36:03.037Z,9.82
2023-04-11T04:37:02.036Z,9.82
2023-04-11T04:38:02.331Z,9.80
2023-04-11T04:39:01.816Z,9.80
2023-04-11T04:40:01.901Z,9.82
2023-04-11T04:41:01.817Z,9.80
2023-04-11T04:42:02.294Z,9.77
2023-04-11T04:43:02.428Z,9.77
2023-04-11T04:44:02.082Z,9.80
2023-04-11T04:45:02.471Z,9.82
2023-04-11T04:46:02.429Z,9.81
2023-04-11T04:47:02.615Z,9.84
2023-04-11T04:48:02.455Z,9.86
2023-04-11T04:49:02.895Z,9.86
2023-04-11T04:50:02.551Z,9.83
2023-04-11T04:51:02.311Z,9.81
2023-04-11T04:52:02.863Z,9.81
2023-04-11T04:53:02.432Z,9.80
2023-04-11T04:54:02.751Z,9.81
2023-04-11T04:55:02.600Z,9.82
2023-04-11T04:56:02.911Z,9.84
2023-04-11T04:57:02.881Z,9.85
2023-04-11T04:58:02.535Z,9.85
2023-04-11T04:59:02.816Z,9.85
2023-04-11T05:00:03.107Z,9.85
2023-04-11T05:01:03.161Z,9.88
2023-04-11T05:02:03.013Z,9.88
2023-04-11T05:03:03.016Z,9.83
2023-04-11T05:04:03.681Z,9.82
2023-04-11T05:05:03.057Z,9.76
2023-04-11T05:06:02.835Z,9.74
2023-04-11T05:07:03.584Z,9.74
2023-04-11T05:08:03.462Z,9.75
2023-04-11T05:09:03.595Z,9.77
2023-04-11T05:10:03.370Z,9.79
2023-04-11T05:11:03.797Z,9.81
2023-04-11T05:12:03.957Z,9.79
2023-04-11T05:13:03.187Z,9.79
2023-04-11T05:14:03.479Z,9.80
2023-04-11T05:15:03.200Z,9.81
2023-04-11T05:16:03.263Z,9.83
2023-04-11T05:17:03.109Z,9.84
2023-04-11T05:18:02.960Z,9.83
2023-04-11T05:19:02.763Z,9.83
2023-04-11T05:20:02.725Z,9.85
2023-04-11T05:21:02.696Z,9.86
2023-04-11T05:22:03.473Z,9.87
2023-04-11T05:23:03.165Z,9.88
2023-04-11T05:24:03.297Z,9.86
2023-04-11T05:25:03.519Z,9.88
2023-04-11T05:26:03.381Z,9.87
2023-04-11T05:27:03.250Z,9.89
2023-04-11T05:28:03.478Z,9.90
2023-04-11T05:29:03.534Z,9.91
2023-04-11T05:30:03.197Z,9.91
2023-04-11T05:31:03.251Z,9.89
2023-04-11T05:32:03.076Z,9.89
2023-04-11T05:33:03.034Z,9.88
2023-04-11T05:34:02.805Z,9.89
2023-04-11T05:35:02.691Z,9.92
2023-04-11T05:36:02.773Z,9.91
2023-04-11T05:37:03.201Z,9.91
2023-04-11T05:38:02.916Z,9.90
2023-04-11T05:39:02.990Z,9.92
2023-04-11T05:40:03.512Z,9.93
2023-04-11T05:41:03.054Z,9.93
2023-04-11T05:42:03.209Z,9.95
2023-04-11T05:43:03.120Z,9.96
2023-04-11T05:44:03.559Z,9.96
2023-04-11T05:45:03.726Z,9.97
2023-04-11T05:46:03.129Z,9.96
2023-04-11T05:47:03.601Z,9.98
2023-04-11T05:48:03.430Z,9.95
2023-04-11T05:49:03.968Z,9.97
2023-04-11T05:50:03.608Z,9.99
2023-04-11T05:51:03.518Z,9.96
2023-04-11T05:52:03.539Z,9.99
2023-04-11T05:53:03.533Z,10.01
2023-04-11T05:54:03.229Z,10.05
2023-04-11T05:55:03.036Z,10.06
2023-04-11T05:56:03.499Z,10.09
2023-04-11T05:57:03.164Z,10.03
2023-04-11T05:58:03.221Z,10.01
2023-04-11T05:59:03.019Z,10.01
2023-04-11T06:00:03.084Z,10.04
2023-04-11T06:01:03.584Z,10.02
2023-04-11T06:02:02.648Z,9.99
2023-04-11T06:03:03.249Z,10.00
2023-04-11T06:04:03.076Z,10.00
2023-04-11T06:05:02.893Z,10.01
2023-04-11T06:06:02.812Z,10.02
2023-04-11T06:07:03.406Z,10.04
2023-04-11T06:08:03.065Z,10.05
2023-04-11T06:09:03.167Z,10.04
2023-04-11T06:10:03.164Z,10.06
2023-04-11T06:11:03.274Z,10.06
2023-04-11T06:12:02.468Z,10.03
2023-04-11T06:13:02.817Z,10.03
2023-04-11T06:14:02.906Z,10.05
2023-04-11T06:15:02.586Z,10.07
2023-04-11T06:16:02.929Z,10.09
2023-04-11T06:17:02.925Z,10.12
2023-04-11T06:18:02.972Z,10.13
2023-04-11T06:19:02.660Z,10.12
2023-04-11T06:20:05.941Z,10.13
2023-04-11T06:21:02.621Z,10.15
2023-04-11T06:22:02.000Z,10.14
2023-04-11T06:23:02.566Z,10.14
2023-04-11T06:24:02.346Z,10.14
2023-04-11T06:25:02.051Z,10.12
2023-04-11T06:26:02.158Z,10.11
2023-04-11T06:27:02.803Z,10.09
2023-04-11T06:28:02.846Z,10.10
2023-04-11T06:29:02.400Z,10.11
2023-04-11T06:30:02.673Z,10.13
2023-04-11T06:31:02.791Z,10.16
2023-04-11T06:32:02.369Z,10.16
2023-04-11T06:33:02.379Z,10.17
2023-04-11T06:34:02.597Z,10.19
2023-04-11T06:35:02.796Z,10.24
2023-04-11T06:36:04.859Z,10.30
2023-04-11T06:37:03.301Z,10.33
2023-04-11T06:38:02.800Z,10.31
2023-04-11T06:39:03.001Z,10.32
2023-04-11T06:40:03.198Z,10.35
2023-04-11T06:41:02.765Z,10.33
2023-04-11T06:42:02.169Z,10.35
2023-04-11T06:43:02.640Z,10.37
2023-04-11T06:44:02.267Z,10.30
2023-04-11T06:45:02.353Z,10.33
2023-04-11T06:46:02.691Z,10.34
2023-04-11T06:47:02.357Z,10.39
2023-04-11T06:48:02.755Z,10.43
2023-04-11T06:49:02.287Z,10.49
2023-04-11T06:50:02.133Z,10.55
2023-04-11T06:51:02.280Z,10.60
2023-04-11T06:52:02.933Z,10.63
2023-04-11T06:53:02.851Z,10.60
2023-04-11T06:54:02.442Z,10.56
2023-04-11T06:55:02.467Z,10.57
2023-04-11T06:56:03.069Z,10.59
2023-04-11T06:57:02.181Z,10.61
2023-04-11T06:58:02.488Z,10.57
2023-04-11T06:59:02.509Z,10.58
2023-04-11T07:00:02.399Z,10.60
2023-04-11T07:01:02.363Z,10.60
2023-04-11T07:02:02.343Z,10.63
2023-04-11T07:03:02.889Z,10.67
2023-04-11T07:04:02.821Z,10.68
2023-04-11T07:05:02.495Z,10.71
2023-04-11T07:06:02.244Z,10.73
2023-04-11T07:07:03.310Z,10.69
2023-04-11T07:08:02.890Z,10.71
2023-04-11T07:09:02.827Z,10.75
2023-04-11T07:10:03.325Z,10.80
2023-04-11T07:11:03.143Z,10.82
2023-04-11T07:12:02.695Z,10.84
2023-04-11T07:13:02.460Z,10.87
2023-04-11T07:14:02.445Z,10.89
2023-04-11T07:15:02.492Z,10.90
2023-04-11T07:16:02.977Z,10.91
2023-04-11T07:17:02.845Z,10.92
2023-04-11T07:18:02.777Z,10.88
2023-04-11T07:19:02.828Z,10.85
2023-04-11T07:20:02.745Z,10.87
2023-04-11T07:21:03.117Z,10.89
2023-04-11T07:22:02.811Z,10.92
2023-04-11T07:23:02.645Z,10.95
2023-04-11T07:24:02.584Z,11.00
2023-04-11T07:25:02.757Z,11.03
2023-04-11T07:26:02.463Z,11.02
2023-04-11T07:27:02.820Z,11.03
2023-04-11T07:28:02.714Z,11.02
2023-04-11T07:29:02.964Z,11.01
2023-04-11T07:30:02.958Z,10.92
2023-04-11T07:31:02.924Z,10.93
2023-04-11T07:32:03.153Z,10.95
2023-04-11T07:33:03.562Z,10.92
2023-04-11T07:34:03.414Z,10.84
2023-04-11T07:35:03.444Z,10.84
2023-04-11T07:36:03.234Z,10.85
2023-04-11T07:37:03.382Z,10.86
2023-04-11T07:38:03.408Z,10.85
2023-04-11T07:39:03.565Z,10.84
2023-04-11T07:40:03.657Z,10.87
2023-04-11T07:41:03.049Z,10.94
2023-04-11T07:42:02.655Z,11.03
2023-04-11T07:43:02.985Z,11.14
2023-04-11T07:44:02.774Z,11.28
2023-04-11T07:45:03.000Z,11.42
2023-04-11T07:46:02.864Z,11.55
2023-04-11T07:47:03.104Z,11.66
2023-04-11T07:48:02.827Z,11.77
2023-04-11T07:49:02.828Z,11.92
2023-04-11T07:50:02.879Z,12.06
2023-04-11T07:51:03.336Z,12.18
2023-04-11T07:52:02.748Z,12.24
2023-04-11T07:53:02.566Z,12.15
2023-04-11T07:54:02.167Z,12.13
2023-04-11T07:55:02.774Z,12.18
2023-04-11T07:56:02.399Z,12.28
2023-04-11T07:57:03.267Z,12.39
2023-04-11T07:58:02.605Z,12.41
2023-04-11T07:59:02.811Z,12.38
2023-04-11T08:00:02.978Z,12.29
2023-04-11T08:01:02.637Z,12.25
2023-04-11T08:02:02.451Z,12.35
2023-04-11T08:03:02.013Z,12.44
2023-04-11T08:04:02.549Z,12.57
2023-04-11T08:05:01.865Z,12.63
2023-04-11T08:06:02.319Z,12.60
2023-04-11T08:07:02.649Z,12.55
2023-04-11T08:08:02.687Z,12.51
2023-04-11T08:09:02.499Z,12.52
2023-04-11T08:10:02.204Z,12.48
2023-04-11T08:11:02.548Z,12.44
2023-04-11T08:12:03.279Z,12.34
2023-04-11T08:13:03.106Z,12.30
2023-04-11T08:14:03.029Z,12.23
2023-04-11T08:15:02.690Z,12.12
2023-04-11T08:16:02.958Z,12.07
2023-04-11T08:17:02.615Z,12.10
2023-04-11T08:18:02.431Z,12.17
2023-04-11T08:19:02.453Z,12.24
2023-04-11T08:20:02.719Z,12.29
2023-04-11T08:21:02.184Z,12.28
2023-04-11T08:22:02.710Z,12.31
2023-04-11T08:23:04.683Z,12.31
2023-04-11T08:24:02.762Z,12.35
2023-04-11T08:25:02.681Z,12.37
2023-04-11T08:26:02.197Z,12.45
2023-04-11T08:27:02.734Z,12.45
2023-04-11T08:28:02.931Z,12.56
2023-04-11T08:29:03.091Z,12.52
2023-04-11T08:30:02.986Z,12.55
2023-04-11T08:31:03.184Z,12.64
2023-04-11T08:32:02.444Z,12.78
2023-04-11T08:33:02.114Z,12.92
2023-04-11T08:34:03.834Z,12.96
2023-04-11T08:35:02.452Z,13.03
2023-04-11T08:36:02.419Z,13.08
2023-04-11T08:37:02.939Z,13.09
2023-04-11T08:38:02.997Z,13.14
2023-04-11T08:39:03.075Z,13.19
2023-04-11T08:40:03.079Z,13.19
2023-04-11T08:41:02.774Z,13.18
2023-04-11T08:42:02.565Z,13.15
2023-04-11T08:43:02.501Z,13.12
2023-04-11T08:44:02.282Z,13.10
2023-04-11T08:45:02.675Z,13.14
2023-04-11T08:46:02.294Z,13.18
2023-04-11T08:47:02.485Z,13.13
2023-04-11T08:48:02.939Z,13.00
2023-04-11T08:49:02.545Z,12.93
2023-04-11T08:50:02.765Z,12.95
2023-04-11T08:51:02.431Z,13.06
2023-04-11T08:52:02.746Z,13.21
2023-04-11T08:53:02.929Z,13.29
2023-04-11T08:54:02.873Z,13.34
2023-04-11T08:55:03.265Z,13.32
2023-04-11T08:56:03.022Z,13.35
2023-04-11T08:57:02.380Z,13.27
2023-04-11T08:58:02.062Z,13.25
2023-04-11T08:59:02.014Z,13.28
2023-04-11T09:00:02.206Z,13.35
2023-04-11T09:01:02.367Z,13.41
2023-04-11T09:02:02.936Z,13.41
2023-04-11T09:03:02.799Z,13.42
2023-04-11T09:04:02.541Z,13.42
2023-04-11T09:05:02.898Z,13.44
2023-04-11T09:06:02.198Z,13.49
2023-04-11T09:07:02.953Z,13.45
2023-04-11T09:08:03.341Z,13.52
2023-04-11T09:09:02.926Z,13.57
2023-04-11T09:10:03.217Z,13.66
2023-04-11T09:11:03.254Z,13.75
2023-04-11T09:12:02.952Z,13.85
2023-04-11T09:13:02.985Z,13.97
2023-04-11T09:14:02.788Z,14.02
2023-04-11T09:15:02.487Z,13.92
2023-04-11T09:16:02.676Z,13.92
2023-04-11T09:17:02.178Z,13.89
2023-04-11T09:18:02.327Z,13.97
2023-04-11T09:19:02.745Z,14.09
2023-04-11T09:20:02.775Z,14.16
2023-04-11T09:21:02.228Z,14.16
2023-04-11T09:22:02.370Z,14.12
2023-04-11T09:23:02.866Z,14.08
2023-04-11T09:24:02.361Z,14.08
2023-04-11T09:25:02.315Z,14.00
2023-04-11T09:26:02.678Z,13.87
2023-04-11T09:27:02.712Z,13.85
2023-04-11T09:28:02.957Z,13.85
2023-04-11T09:29:02.985Z,13.82
2023-04-11T09:30:02.897Z,13.79
2023-04-11T09:31:03.243Z,13.80
2023-04-11T09:32:02.170Z,13.76
2023-04-11T09:33:02.280Z,13.79
2023-04-11T09:34:02.297Z,13.84
2023-04-11T09:35:02.107Z,13.91
2023-04-11T09:36:02.622Z,14.01
2023-04-11T09:37:02.847Z,14.14
2023-04-11T09:38:02.949Z,14.19
2023-04-11T09:39:03.328Z,14.16
2023-04-11T09:40:03.973Z,14.23
2023-04-11T09:41:03.124Z,14.40
2023-04-11T09:42:02.119Z,14.53
2023-04-11T09:43:02.225Z,14.50
2023-04-11T09:44:02.472Z,14.50
2023-04-11T09:45:02.494Z,14.58
2023-04-11T09:46:02.618Z,14.65
2023-04-11T09:47:02.876Z,14.74
2023-04-11T09:48:03.061Z,14.88
2023-04-11T09:49:03.406Z,15.02
2023-04-11T09:50:03.132Z,15.12
2023-04-11T09:51:03.290Z,15.14
2023-04-11T09:52:02.229Z,15.15
2023-04-11T09:53:02.073Z,15.20
2023-04-11T09:54:02.361Z,15.19
2023-04-11T09:55:02.643Z,15.21
2023-04-11T09:56:02.307Z,15.22
2023-04-11T09:57:02.462Z,15.26
2023-04-11T09:58:02.780Z,15.34
2023-04-11T09:59:02.503Z,15.35
2023-04-11T10:00:02.479Z,15.29
2023-04-11T10:01:02.546Z,15.29
2023-04-11T10:02:02.937Z,15.44
2023-04-11T10:03:03.214Z,15.57
2023-04-11T10:04:02.837Z,15.54
2023-04-11T10:05:03.009Z,15.53
2023-04-11T10:06:03.162Z,15.52
2023-04-11T10:07:03.283Z,15.55
2023-04-11T10:08:03.586Z,15.58
2023-04-11T10:09:03.332Z,15.61
2023-04-11T10:10:03.536Z,15.43
2023-04-11T10:11:03.261Z,15.35
2023-04-11T10:12:02.458Z,15.32
2023-04-11T10:13:02.700Z,15.24
2023-04-11T10:14:02.804Z,15.22
2023-04-11T10:15:02.829Z,15.23
2023-04-11T10:16:02.746Z,15.15
2023-04-11T10:17:03.081Z,15.09
2023-04-11T10:18:03.239Z,15.12
2023-04-11T10:19:02.941Z,15.07
2023-04-11T10:20:03.154Z,14.91
2023-04-11T10:21:03.404Z,14.87
2023-04-11T10:22:03.071Z,14.92
2023-04-11T10:23:03.152Z,15.03
2023-04-11T10:24:03.460Z,14.98
2023-04-11T10:25:03.417Z,14.97
2023-04-11T10:26:03.369Z,14.74
2023-04-11T10:27:03.310Z,14.65
2023-04-11T10:28:03.146Z,14.62
2023-04-11T10:29:03.234Z,14.48
2023-04-11T10:30:03.384Z,14.46
2023-04-11T10:31:03.700Z,14.50
2023-04-11T10:32:03.565Z,14.56
2023-04-11T10:33:03.233Z,14.66
2023-04-11T10:34:03.339Z,14.64
2023-04-11T10:35:03.495Z,14.71
2023-04-11T10:36:03.489Z,14.79
2023-04-11T10:37:02.755Z,14.84
2023-04-11T10:38:02.599Z,14.88
2023-04-11T10:39:03.089Z,14.97
2023-04-11T10:40:02.895Z,15.06
2023-04-11T10:41:02.808Z,15.12
2023-04-11T10:42:03.410Z,15.13
2023-04-11T10:43:03.616Z,14.98
2023-04-11T10:44:03.186Z,15.00
2023-04-11T10:45:03.548Z,15.04
2023-04-11T10:46:03.729Z,15.06
2023-04-11T10:47:02.825Z,15.15
2023-04-11T10:48:02.651Z,15.25
2023-04-11T10:49:02.861Z,15.27
2023-04-11T10:50:02.726Z,15.26
2023-04-11T10:51:02.751Z,15.39
2023-04-11T10:52:03.499Z,15.41
2023-04-11T10:53:02.909Z,15.32
2023-04-11T10:54:03.178Z,15.38
2023-04-11T10:55:03.082Z,15.40
2023-04-11T10:56:03.050Z,15.31
2023-04-11T10:57:02.822Z,15.13
2023-04-11T10:58:02.793Z,15.07
2023-04-11T10:59:02.750Z,15.12
2023-04-11T11:00:02.873Z,15.28
2023-04-11T11:01:03.112Z,15.44
2023-04-11T11:02:03.111Z,15.57
2023-04-11T11:03:02.838Z,15.64
2023-04-11T11:04:03.115Z,15.76
2023-04-11T11:05:02.802Z,15.91
2023-04-11T11:06:02.685Z,16.00
2023-04-11T11:07:02.572Z,16.10
2023-04-11T11:08:02.149Z,16.14
2023-04-11T11:09:02.320Z,16.25
2023-04-11T11:10:02.353Z,16.32
2023-04-11T11:11:02.109Z,16.24
2023-04-11T11:12:02.838Z,16.24
2023-04-11T11:13:02.768Z,16.20
2023-04-11T11:14:02.697Z,16.25
2023-04-11T11:15:02.939Z,16.23
2023-04-11T11:16:02.731Z,16.21
2023-04-11T11:17:03.204Z,16.08
2023-04-11T11:18:02.515Z,15.97
2023-04-11T11:19:02.551Z,15.83
2023-04-11T11:20:02.914Z,15.62
2023-04-11T11:21:03.258Z,15.50
2023-04-11T11:22:02.468Z,15.48
2023-04-11T11:23:02.267Z,15.38
2023-04-11T11:24:02.369Z,15.31
2023-04-11T11:25:02.516Z,15.24
2023-04-11T11:26:02.449Z,15.31
2023-04-11T11:27:02.655Z,15.42
2023-04-11T11:28:02.150Z,15.44
2023-04-11T11:29:02.321Z,15.35
2023-04-11T11:30:02.394Z,15.37
2023-04-11T11:31:02.208Z,15.48
2023-04-11T11:32:03.038Z,15.55
2023-04-11T11:33:02.661Z,15.66
2023-04-11T11:34:18.353Z,15.74
2023-04-11T11:35:02.825Z,15.82
2023-04-11T11:36:02.730Z,15.91
2023-04-11T11:37:02.742Z,16.05
2023-04-11T11:38:02.751Z,16.06
2023-04-11T11:39:02.297Z,16.04
2023-04-11T11:40:02.624Z,15.95
2023-04-11T11:41:02.698Z,15.88
2023-04-11T11:42:03.219Z,15.81
2023-04-11T11:43:02.769Z,15.73
2023-04-11T11:44:03.143Z,15.65
2023-04-11T11:45:03.235Z,15.75
2023-04-11T11:46:04.789Z,15.88
2023-04-11T11:47:02.867Z,16.02
2023-04-11T11:48:02.397Z,16.15
2023-04-11T11:49:02.508Z,16.30
2023-04-11T11:50:02.430Z,16.42
2023-04-11T11:51:02.488Z,16.42
2023-04-11T11:52:03.190Z,16.43
2023-04-11T11:53:02.788Z,16.48
2023-04-11T11:54:02.914Z,16.50
2023-04-11T11:55:02.950Z,16.58
2023-04-11T11:56:02.885Z,16.62
2023-04-11T11:57:03.222Z,16.67
2023-04-11T11:58:03.083Z,16.68
2023-04-11T11:59:03.120Z,16.62
2023-04-11T12:00:02.611Z,16.59
2023-04-11T12:01:03.069Z,16.51
2023-04-11T12:02:03.266Z,16.47
2023-04-11T12:03:03.208Z,16.38
2023-04-11T12:04:03.320Z,16.16
2023-04-11T12:05:02.839Z,15.98
2023-04-11T12:06:02.894Z,15.94
2023-04-11T12:07:03.919Z,15.73
2023-04-11T12:08:03.960Z,15.64
2023-04-11T12:09:03.922Z,15.63
2023-04-11T12:10:03.652Z,15.65
2023-04-11T12:11:03.777Z,15.63
2023-04-11T12:12:02.794Z,15.54
2023-04-11T12:13:02.826Z,15.49
2023-04-11T12:14:02.818Z,15.53
2023-04-11T12:15:03.499Z,15.54
2023-04-11T12:16:03.501Z,15.51
2023-04-11T12:17:03.018Z,15.46
2023-04-11T12:18:03.479Z,15.44
2023-04-11T12:19:03.547Z,15.40
2023-04-11T12:20:03.136Z,15.37
2023-04-11T12:21:03.110Z,15.38
2023-04-11T12:22:03.276Z,15.44
2023-04-11T12:23:03.765Z,15.53
2023-04-11T12:24:03.330Z,15.56
2023-04-11T12:25:03.468Z,15.55
2023-04-11T12:26:03.760Z,15.57
2023-04-11T12:27:07.246Z,15.68
2023-04-11T12:28:03.999Z,15.81
2023-04-11T12:29:03.378Z,15.87
2023-04-11T12:30:03.419Z,15.97
2023-04-11T12:31:03.912Z,16.09
2023-04-11T12:32:03.866Z,16.16
2023-04-11T12:33:03.131Z,16.18
2023-04-11T12:34:03.261Z,16.29
2023-04-11T12:35:02.818Z,16.47
2023-04-11T12:36:02.947Z,16.59
2023-04-11T12:37:03.283Z,16.74
2023-04-11T12:38:02.657Z,16.84
2023-04-11T12:39:02.491Z,16.99
2023-04-11T12:40:02.690Z,17.14
2023-04-11T12:41:26.333Z,17.26
2023-04-11T12:42:02.534Z,17.39
2023-04-11T12:43:03.563Z,17.56
2023-04-11T12:44:03.164Z,17.57
2023-04-11T12:45:03.268Z,17.63
2023-04-11T12:46:03.576Z,17.70
2023-04-11T12:47:03.698Z,17.72
2023-04-11T12:48:03.515Z,17.75
2023-04-11T12:49:03.860Z,17.75
2023-04-11T12:50:03.661Z,17.78
2023-04-11T12:51:03.785Z,17.89
2023-04-11T12:52:03.327Z,17.96
2023-04-11T12:53:03.114Z,17.79
2023-04-11T12:54:03.195Z,17.46
2023-04-11T12:55:03.335Z,17.27